Time;durP1;ratioP1;P1;durP2;ratioP2;P2;SDS_P1;SDS_P2;PMS_P1;PMS_P2;Temp;Humidity;BMP_temperature;BMP_pressure;BME280_temperature;BME280_humidity;BME280_pressure;Samples;Min_cycle;Max_cycle;Signal;HPM_P1;HPM_P2
2021/10/05 00:00:00;;;;;;;;;;;11.90;99.90;12.30;99484.00;;;;342413;28;91256;-94
2021/10/05 00:00:12;;;;;;;;;;;11.90;99.90;12.20;99484.00;;;;343362;28;83468;-94
2021/10/05 00:00:23;;;;;;;;;;;11.90;99.90;12.20;99479.00;;;;344984;28;91556;-94
2021/10/05 00:00:36;;;;;;;;;;;11.90;99.90;12.20;99484.00;;;;344771;28;83394;-94
2021/10/05 00:00:47;;;;;;;;;;;11.90;99.90;12.10;99483.00;;;;341522;28;91688;-94
2021/10/05 00:01:00;;;;;;;;;;;11.90;99.90;12.10;99479.00;;;;344776;28;82518;-94
2021/10/05 00:01:12;;;;;;;;;;;11.80;99.90;12.10;99483.00;;;;340130;28;92705;-94
2021/10/05 00:01:24;;;;;;;;;;;11.80;99.90;12.10;99478.00;;;;346139;28;82486;-94
2021/10/05 00:01:41;;;;;;;;;;;11.80;99.90;12.10;99478.00;;;;341631;28;91665;-94
2021/10/05 00:01:53;;;;;;;;;;;11.80;99.90;12.10;99479.00;;;;343456;28;83284;-94
2021/10/05 00:02:05;;;;;;;;;;;11.90;99.90;12.20;99471.00;;;;341547;28;90346;-94
2021/10/05 00:02:17;;;;;;;;;;;11.80;99.90;12.20;99483.00;;;;343206;28;83486;-94
2021/10/05 00:02:29;;;;;;;;;;;11.80;99.90;12.20;99483.00;;;;341516;28;91353;-95
2021/10/05 00:02:41;;;;;;;;;;;11.80;99.90;12.20;99476.00;;;;344771;28;83391;-94
2021/10/05 00:02:54;;;;;;;;;;;11.80;99.90;12.20;99481.00;;;;344268;28;91408;-94
2021/10/05 00:03:06;;;;;;;;;;;11.80;99.90;12.20;99477.00;;;;344909;28;82446;-94
2021/10/05 00:03:18;;;;;;;;;;;11.80;99.90;12.30;99487.00;;;;344308;28;92108;-94
2021/10/05 00:03:30;;;;;;;;;;;11.80;99.90;12.30;99475.00;;;;344654;28;84447;-94
2021/10/05 00:03:42;;;;;;;;;;;11.80;99.90;12.30;99477.00;;;;341653;28;91229;-94
2021/10/05 00:03:54;;;;;;;;;;;11.80;99.90;12.20;99476.00;;;;344682;28;82577;-94
2021/10/05 00:04:05;;;;;;;;;;;11.90;99.90;12.20;99474.00;;;;342931;28;91049;-93
2021/10/05 00:04:17;;;;;;;;;;;11.90;99.90;12.10;99478.00;;;;343402;28;83433;-94
2021/10/05 00:04:29;;;;;;;;;;;11.80;99.90;12.10;99477.00;;;;345505;28;90510;-95
2021/10/05 00:04:41;;;;;;;;;;;11.80;99.90;12.10;99477.00;;;;343321;28;83445;-94
2021/10/05 00:04:53;;;;;;;;;;;11.80;99.90;12.10;99475.00;;;;345503;28;90470;-94
2021/10/05 00:05:05;;;;;;;;;;;11.80;99.90;12.20;99475.00;;;;344728;28;83409;-94
2021/10/05 00:05:17;;;;;;;;;;;11.80;99.90;12.20;99480.00;;;;344331;28;91319;-94
2021/10/05 00:05:29;;;;;;;;;;;11.80;99.90;12.10;99479.00;;;;343316;28;82578;-94
2021/10/05 00:05:41;;;;;;;;;;;11.80;99.90;12.10;99479.00;;;;342956;28;90451;-94
2021/10/05 00:05:52;;;;;;;;;;;11.90;99.90;12.10;99477.00;;;;342891;28;83456;-94
2021/10/05 00:06:04;;;;;;;;;;;11.80;99.90;12.10;99476.00;;;;341530;28;90169;-94
2021/10/05 00:06:16;;;;;;;;;;;11.80;99.90;12.00;99476.00;;;;343377;28;83316;-94
2021/10/05 00:06:28;;;;;;;;;;;11.80;99.90;12.00;99485.00;;;;342969;28;90581;-94
2021/10/05 00:06:40;;;;;;;;;;;11.80;99.90;12.00;99482.00;;;;343396;28;82434;-94
2021/10/05 00:06:52;;;;;;;;;;;11.80;99.90;12.10;99469.00;;;;341528;28;90937;-94
2021/10/05 00:07:04;;;;;;;;;;;11.80;99.90;12.10;99471.00;;;;344697;28;83424;-94
2021/10/05 00:07:15;;;;;;;;;;;11.80;99.90;12.20;99473.00;;;;344285;28;91814;-94
2021/10/05 00:07:27;;;;;;;;;;;11.80;99.90;12.20;99473.00;;;;343295;28;83402;-94
2021/10/05 00:07:39;;;;;;;;;;;11.80;99.90;12.10;99476.00;;;;342917;28;91948;-93
2021/10/05 00:07:51;;;;;;;;;;;11.80;99.90;12.10;99477.00;;;;344699;28;82516;-94
2021/10/05 00:08:03;;;;;;;;;;;11.80;99.90;12.10;99467.00;;;;341494;28;92058;-94
2021/10/05 00:08:15;;;;;;;;;;;11.80;99.90;12.10;99481.00;;;;343311;28;83415;-93
2021/10/05 00:08:26;;;;;;;;;;;11.80;99.90;12.10;99476.00;;;;341659;28;90867;-94
2021/10/05 00:08:38;;;;;;;;;;;11.80;99.90;12.10;99467.00;;;;342008;28;83352;-94
2021/10/05 00:08:50;;;;;;;;;;;11.80;99.90;12.10;99467.00;;;;342890;28;90667;-94
2021/10/05 00:09:02;;;;;;;;;;;11.80;99.90;12.10;99471.00;;;;343354;28;83396;-94
2021/10/05 00:09:14;;;;;;;;;;;11.80;99.90;12.10;99468.00;;;;345619;28;92161;-93
2021/10/05 00:09:26;;;;;;;;;;;11.80;99.90;12.20;99466.00;;;;341934;28;83425;-94
2021/10/05 00:09:38;;;;;;;;;;;11.80;99.90;12.30;99475.00;;;;342742;28;90963;-94
2021/10/05 00:09:50;;;;;;;;;;;11.80;99.90;12.20;99469.00;;;;343342;28;83400;-94
2021/10/05 00:10:03;;;;;;;;;;;11.80;99.90;12.20;99471.00;;;;344261;28;90304;-95
2021/10/05 00:10:15;;;;;;;;;;;11.80;99.90;12.20;99462.00;;;;341983;28;83525;-94
2021/10/05 00:10:28;;;;;;;;;;;11.80;99.90;12.20;99475.00;;;;342966;28;91482;-94
2021/10/05 00:10:40;;;;;;;;;;;11.80;99.90;12.20;99470.00;;;;343153;28;83546;-94
2021/10/05 00:10:52;;;;;;;;;;;11.80;99.90;12.20;99467.00;;;;342710;28;89405;-94
2021/10/05 00:11:04;;;;;;;;;;;11.80;99.90;12.20;99467.00;;;;341974;28;83361;-94
2021/10/05 00:11:16;;;;;;;;;;;11.80;99.90;12.20;99467.00;;;;342957;28;91062;-93
2021/10/05 00:11:28;;;;;;;;;;;11.80;99.90;12.20;99464.00;;;;343264;28;83876;-94
2021/10/05 00:11:40;;;;;;;;;;;11.80;99.90;12.20;99465.00;;;;343105;28;87933;-95
2021/10/05 00:11:52;;;;;;;;;;;11.80;99.90;12.20;99462.00;;;;344620;28;82587;-94
2021/10/05 00:12:04;;;;;;;;;;;11.80;99.90;12.20;99463.00;;;;340180;28;91839;-94
2021/10/05 00:12:16;;;;;;;;;;;11.80;99.90;12.20;99474.00;;;;341986;28;82505;-94
2021/10/05 00:12:28;;;;;;;;;;;11.80;99.90;12.20;99466.00;;;;341540;28;91480;-94
2021/10/05 00:12:40;;;;;;;;;;;11.80;99.90;12.20;99468.00;;;;343280;28;83430;-94
2021/10/05 00:12:52;;;;;;;;;;;11.80;99.90;12.10;99465.00;;;;344248;28;91594;-93
2021/10/05 00:13:05;;;;;;;;;;;11.80;99.90;12.20;99470.00;;;;343364;28;82517;-94
2021/10/05 00:13:16;;;;;;;;;;;11.80;99.90;12.20;99466.00;;;;342683;28;92367;-94
2021/10/05 00:13:28;;;;;;;;;;;11.90;99.90;12.20;99469.00;;;;345969;28;83507;-95
2021/10/05 00:13:40;;;;;;;;;;;11.80;99.90;12.20;99461.00;;;;344048;28;90468;-94
2021/10/05 00:13:52;;;;;;;;;;;11.80;99.90;12.20;99459.00;;;;343276;28;83485;-94
2021/10/05 00:14:04;;;;;;;;;;;11.90;99.90;12.20;99461.00;;;;341408;28;91877;-94
2021/10/05 00:14:16;;;;;;;;;;;11.90;99.90;12.20;99462.00;;;;344771;28;83355;-94
2021/10/05 00:14:28;;;;;;;;;;;11.90;99.90;12.20;99475.00;;;;345672;28;90807;-94
2021/10/05 00:14:40;;;;;;;;;;;11.90;99.90;12.20;99468.00;;;;346058;28;83447;-94
2021/10/05 00:14:51;;;;;;;;;;;11.90;99.90;12.20;99468.00;;;;343355;28;88742;-95
2021/10/05 00:15:05;;;;;;;;;;;11.90;99.90;12.20;99461.00;;;;343346;28;82342;-94
2021/10/05 00:15:16;;;;;;;;;;;11.90;99.90;12.20;99465.00;;;;345704;28;90067;-94
2021/10/05 00:15:28;;;;;;;;;;;11.90;99.90;12.20;99468.00;;;;343435;28;82468;-94
2021/10/05 00:15:40;;;;;;;;;;;11.90;99.90;12.20;99470.00;;;;344377;28;88764;-94
2021/10/05 00:15:52;;;;;;;;;;;11.90;99.90;12.20;99465.00;;;;344770;28;83352;-94
2021/10/05 00:16:04;;;;;;;;;;;11.90;99.90;12.30;99468.00;;;;341409;28;91555;-94
2021/10/05 00:16:16;;;;;;;;;;;11.90;99.90;12.30;99470.00;;;;344423;28;82541;-94
2021/10/05 00:16:28;;;;;;;;;;;11.90;99.90;12.30;99472.00;;;;344337;28;91446;-94
2021/10/05 00:16:40;;;;;;;;;;;11.90;99.90;12.30;99471.00;;;;344771;28;83331;-93
2021/10/05 00:16:52;;;;;;;;;;;11.90;99.90;12.30;99472.00;;;;345674;28;90954;-94
2021/10/05 00:17:04;;;;;;;;;;;11.90;99.90;12.30;99470.00;;;;341810;28;82799;-94
2021/10/05 00:17:16;;;;;;;;;;;11.90;99.90;12.30;99473.00;;;;342910;28;92345;-94
2021/10/05 00:17:27;;;;;;;;;;;11.90;99.90;12.30;99472.00;;;;342089;28;83352;-94
2021/10/05 00:17:39;;;;;;;;;;;12.00;99.90;12.30;99466.00;;;;341571;28;91377;-94
2021/10/05 00:17:51;;;;;;;;;;;11.90;99.90;12.30;99466.00;;;;342571;28;88010;-94
2021/10/05 00:18:03;;;;;;;;;;;12.00;99.90;12.30;99472.00;;;;344244;28;90816;-94
2021/10/05 00:18:15;;;;;;;;;;;11.90;99.90;12.30;99468.00;;;;344725;28;83404;-94
2021/10/05 00:18:27;;;;;;;;;;;12.00;99.90;12.30;99468.00;;;;345311;28;90428;-93
2021/10/05 00:18:39;;;;;;;;;;;12.00;99.90;12.30;99462.00;;;;344601;28;83473;-94
2021/10/05 00:18:50;;;;;;;;;;;12.00;99.90;12.30;99472.00;;;;344225;28;91497;-94
2021/10/05 00:19:02;;;;;;;;;;;12.00;99.90;12.30;99470.00;;;;345958;28;82540;-94
2021/10/05 00:19:15;;;;;;;;;;;12.00;99.90;12.30;99472.00;;;;344254;28;91636;-94
2021/10/05 00:19:27;;;;;;;;;;;12.00;99.90;12.30;99474.00;;;;344579;28;83972;-94
2021/10/05 00:19:38;;;;;;;;;;;12.00;99.90;12.40;99470.00;;;;344328;28;91479;-94
2021/10/05 00:19:50;;;;;;;;;;;12.00;99.90;12.40;99465.00;;;;341974;28;83332;-94
2021/10/05 00:20:04;;;;;;;;;;;12.00;99.90;12.50;99471.00;;;;344286;28;91538;-94
2021/10/05 00:20:16;;;;;;;;;;;12.00;99.90;12.40;99468.00;;;;346086;28;83436;-94
2021/10/05 00:20:28;;;;;;;;;;;12.00;99.90;12.40;99476.00;;;;342941;28;91813;-94
2021/10/05 00:20:40;;;;;;;;;;;12.00;99.90;12.40;99475.00;;;;343357;28;83339;-94
2021/10/05 00:20:52;;;;;;;;;;;12.00;99.90;12.40;99470.00;;;;345526;28;91825;-94
2021/10/05 00:21:04;;;;;;;;;;;12.00;99.90;12.50;99472.00;;;;343454;28;83360;-95
2021/10/05 00:21:17;;;;;;;;;;;12.00;99.90;12.40;99474.00;;;;344239;28;91248;-94
2021/10/05 00:21:28;;;;;;;;;;;12.10;99.90;12.40;99463.00;;;;342002;28;83420;-94
2021/10/05 00:21:40;;;;;;;;;;;12.10;99.90;12.50;99475.00;;;;344182;28;91576;-94
2021/10/05 00:21:52;;;;;;;;;;;12.00;99.90;12.50;99466.00;;;;346049;28;83408;-94
2021/10/05 00:22:04;;;;;;;;;;;12.10;99.90;12.40;99467.00;;;;344300;28;90399;-95
2021/10/05 00:22:16;;;;;;;;;;;12.00;99.90;12.50;99465.00;;;;344671;28;83523;-94
2021/10/05 00:22:28;;;;;;;;;;;12.10;99.90;12.50;99462.00;;;;344357;28;91211;-95
2021/10/05 00:22:40;;;;;;;;;;;12.10;99.90;12.50;99466.00;;;;343340;28;83374;-95
2021/10/05 00:22:51;;;;;;;;;;;12.10;99.90;12.50;99457.00;;;;343980;28;89441;-94
2021/10/05 00:23:04;;;;;;;;;;;12.10;99.90;12.50;99469.00;;;;343409;28;82507;-94
2021/10/05 00:23:15;;;;;;;;;;;12.10;99.90;12.50;99469.00;;;;342879;28;92285;-94
2021/10/05 00:23:27;;;;;;;;;;;12.10;99.90;12.50;99470.00;;;;343264;28;83417;-94
2021/10/05 00:23:39;;;;;;;;;;;12.10;99.90;12.50;99471.00;;;;340195;28;91853;-94
2021/10/05 00:23:51;;;;;;;;;;;12.10;99.90;12.50;99469.00;;;;343079;28;83560;-94
2021/10/05 00:24:03;;;;;;;;;;;12.10;99.90;12.40;99463.00;;;;344121;28;90292;-94
2021/10/05 00:24:14;;;;;;;;;;;12.10;99.90;12.40;99456.00;;;;341951;28;83408;-94
2021/10/05 00:24:26;;;;;;;;;;;12.10;99.90;12.40;99464.00;;;;344243;28;91553;-94
2021/10/05 00:24:38;;;;;;;;;;;12.10;99.90;12.40;99464.00;;;;343353;28;83266;-94
2021/10/05 00:24:50;;;;;;;;;;;12.10;99.90;12.50;99467.00;;;;342897;28;91485;-94
2021/10/05 00:25:02;;;;;;;;;;;12.10;99.90;12.50;99472.00;;;;343277;28;83416;-94
2021/10/05 00:25:14;;;;;;;;;;;12.10;99.90;12.50;99466.00;;;;342872;28;91410;-94
2021/10/05 00:25:26;;;;;;;;;;;12.10;99.90;12.50;99465.00;;;;345915;28;83494;-94
2021/10/05 00:25:38;;;;;;;;;;;12.10;99.90;12.50;99467.00;;;;344410;28;88057;-94
2021/10/05 00:25:50;;;;;;;;;;;12.20;99.90;12.40;99461.00;;;;342921;28;83604;-94
2021/10/05 00:26:02;;;;;;;;;;;12.20;99.90;12.40;99461.00;;;;342983;28;90269;-95
2021/10/05 00:26:13;;;;;;;;;;;12.10;99.90;12.40;99467.00;;;;343377;28;82491;-94
2021/10/05 00:26:25;;;;;;;;;;;12.10;99.90;12.40;99467.00;;;;344303;28;90402;-94
2021/10/05 00:26:38;;;;;;;;;;;12.10;99.90;12.50;99461.00;;;;343341;28;82422;-94
2021/10/05 00:26:50;;;;;;;;;;;12.10;99.90;12.40;99465.00;;;;340202;28;91336;-94
2021/10/05 00:27:02;;;;;;;;;;;12.20;99.90;12.50;99464.00;;;;343399;28;82496;-94
2021/10/05 00:27:14;;;;;;;;;;;12.10;99.90;12.50;99465.00;;;;344330;28;91315;-94
2021/10/05 00:27:26;;;;;;;;;;;12.20;99.90;12.50;99465.00;;;;343279;28;82486;-94
2021/10/05 00:27:38;;;;;;;;;;;12.20;99.90;12.40;99465.00;;;;341568;28;91429;-94
2021/10/05 00:27:50;;;;;;;;;;;12.10;99.90;12.50;99465.00;;;;343264;28;82556;-95
2021/10/05 00:28:02;;;;;;;;;;;12.20;99.90;12.40;99465.00;;;;342956;28;91681;-94
2021/10/05 00:28:13;;;;;;;;;;;12.10;99.90;12.40;99464.00;;;;343326;28;82554;-94
2021/10/05 00:28:25;;;;;;;;;;;12.20;99.90;12.40;99468.00;;;;345641;28;91117;-95
2021/10/05 00:28:37;;;;;;;;;;;12.20;99.90;12.40;99465.00;;;;343392;28;82516;-94
2021/10/05 00:28:49;;;;;;;;;;;12.20;99.90;12.40;99465.00;;;;342812;28;91409;-94
2021/10/05 00:29:01;;;;;;;;;;;12.20;99.90;12.40;99466.00;;;;340720;28;82496;-94
2021/10/05 00:29:13;;;;;;;;;;;12.20;99.90;12.40;99470.00;;;;341559;28;91267;-94
2021/10/05 00:29:24;;;;;;;;;;;12.10;99.90;12.40;99458.00;;;;342007;28;82426;-94
2021/10/05 00:29:36;;;;;;;;;;;12.10;99.90;12.40;99466.00;;;;341281;28;90567;-94
2021/10/05 00:29:48;;;;;;;;;;;12.10;99.90;12.40;99468.00;;;;341823;28;82553;-94
2021/10/05 00:30:00;;;;;;;;;;;12.10;99.90;12.40;99468.00;;;;342914;28;90562;-95
2021/10/05 00:30:12;;;;;;;;;;;12.20;99.90;12.40;99467.00;;;;340568;28;83396;-94
2021/10/05 00:30:26;;;;;;;;;;;12.20;99.90;12.40;99472.00;;;;340111;28;91710;-94
2021/10/05 00:30:38;;;;;;;;;;;12.20;99.90;12.40;99470.00;;;;341937;28;83345;-94
2021/10/05 00:30:50;;;;;;;;;;;12.10;99.90;12.40;99467.00;;;;341486;28;91749;-94
2021/10/05 00:31:01;;;;;;;;;;;12.10;99.90;12.40;99470.00;;;;343326;28;83457;-94
2021/10/05 00:31:13;;;;;;;;;;;12.20;99.90;12.40;99472.00;;;;340205;28;91073;-94
2021/10/05 00:31:25;;;;;;;;;;;12.20;99.90;12.50;99471.00;;;;339316;28;83386;-94
2021/10/05 00:31:37;;;;;;;;;;;12.10;99.90;12.60;99466.00;;;;341495;28;91261;-94
2021/10/05 00:31:49;;;;;;;;;;;12.20;99.90;12.60;99469.00;;;;340681;28;82480;-94
2021/10/05 00:32:01;;;;;;;;;;;12.20;99.90;12.70;99470.00;;;;341648;28;90432;-94
2021/10/05 00:32:13;;;;;;;;;;;12.20;99.90;12.70;99468.00;;;;342027;28;83457;-95
2021/10/05 00:32:25;;;;;;;;;;;12.20;99.90;12.70;99468.00;;;;341582;28;90473;-94
2021/10/05 00:32:37;;;;;;;;;;;12.20;99.90;12.60;99458.00;;;;339335;28;83261;-94
2021/10/05 00:32:49;;;;;;;;;;;12.20;99.90;12.60;99464.00;;;;343024;28;91380;-94
2021/10/05 00:33:02;;;;;;;;;;;12.20;99.90;12.60;99462.00;;;;340817;28;83405;-94
2021/10/05 00:33:14;;;;;;;;;;;12.20;99.90;12.60;99467.00;;;;340456;28;92616;-94
2021/10/05 00:33:26;;;;;;;;;;;12.20;99.90;12.60;99465.00;;;;342359;28;82513;-95
2021/10/05 00:33:38;;;;;;;;;;;12.20;99.90;12.60;99466.00;;;;341879;28;89469;-94
2021/10/05 00:33:49;;;;;;;;;;;12.20;99.90;12.60;99471.00;;;;342196;28;83499;-95
2021/10/05 00:34:01;;;;;;;;;;;12.20;99.90;12.60;99465.00;;;;343277;28;90075;-94
2021/10/05 00:34:13;;;;;;;;;;;12.20;99.90;12.60;99466.00;;;;341154;28;82375;-94
2021/10/05 00:34:25;;;;;;;;;;;12.20;99.90;12.60;99459.00;;;;344027;28;90739;-95
2021/10/05 00:34:37;;;;;;;;;;;12.20;99.90;12.60;99466.00;;;;343585;28;83456;-93
2021/10/05 00:34:50;;;;;;;;;;;12.20;99.90;12.70;99465.00;;;;343215;28;90176;-94
2021/10/05 00:35:03;;;;;;;;;;;12.20;99.90;12.70;99459.00;;;;343673;28;82547;-94
2021/10/05 00:35:14;;;;;;;;;;;12.20;99.90;12.70;99466.00;;;;341892;28;91027;-94
2021/10/05 00:35:28;;;;;;;;;;;12.20;99.90;12.70;99460.00;;;;340676;28;82552;-94
2021/10/05 00:35:40;;;;;;;;;;;12.20;99.90;12.60;99466.00;;;;341861;28;90842;-94
2021/10/05 00:35:52;;;;;;;;;;;12.20;99.90;12.60;99459.00;;;;342151;28;82774;-94
2021/10/05 00:36:04;;;;;;;;;;;12.30;99.90;12.60;99459.00;;;;343190;28;90137;-94
2021/10/05 00:36:16;;;;;;;;;;;12.30;99.90;12.60;99458.00;;;;342285;28;82365;-94
2021/10/05 00:36:27;;;;;;;;;;;12.30;99.90;12.50;99454.00;;;;340571;28;90095;-94
2021/10/05 00:36:39;;;;;;;;;;;12.30;99.90;12.50;99453.00;;;;340995;28;83481;-94
2021/10/05 00:36:52;;;;;;;;;;;12.30;99.90;12.50;99461.00;;;;341794;28;90805;-93
2021/10/05 00:37:04;;;;;;;;;;;12.20;99.90;12.60;99461.00;;;;342403;28;82573;-93
2021/10/05 00:37:16;;;;;;;;;;;12.30;99.90;12.50;99456.00;;;;343181;28;90669;-94
2021/10/05 00:37:27;;;;;;;;;;;12.30;99.90;12.60;99461.00;;;;343690;28;82741;-93
2021/10/05 00:37:39;;;;;;;;;;;12.20;99.90;12.60;99457.00;;;;341906;28;91826;-94
2021/10/05 00:37:51;;;;;;;;;;;12.30;99.90;12.60;99454.00;;;;343347;28;82531;-94
2021/10/05 00:38:03;;;;;;;;;;;12.20;99.90;12.60;99454.00;;;;343117;28;91827;-94
2021/10/05 00:38:15;;;;;;;;;;;12.30;99.90;12.60;99453.00;;;;342201;28;82509;-94
2021/10/05 00:38:26;;;;;;;;;;;12.30;99.90;12.60;99450.00;;;;344674;28;90221;-93
2021/10/05 00:38:38;;;;;;;;;;;12.30;99.90;12.60;99450.00;;;;343358;28;83359;-93
2021/10/05 00:38:50;;;;;;;;;;;12.30;99.90;12.50;99449.00;;;;344296;28;89529;-94
2021/10/05 00:39:03;;;;;;;;;;;12.30;99.90;12.50;99454.00;;;;343140;28;83610;-94
2021/10/05 00:39:15;;;;;;;;;;;12.30;99.90;12.50;99451.00;;;;342766;28;91725;-94
2021/10/05 00:39:27;;;;;;;;;;;12.30;99.90;12.50;99453.00;;;;341921;28;83435;-94
2021/10/05 00:39:39;;;;;;;;;;;12.20;99.90;12.50;99447.00;;;;342951;28;91146;-94
2021/10/05 00:39:50;;;;;;;;;;;12.20;99.90;12.50;99448.00;;;;344298;28;83587;-95
2021/10/05 00:40:03;;;;;;;;;;;12.20;99.90;12.50;99462.00;;;;341560;28;91845;-94
2021/10/05 00:40:15;;;;;;;;;;;12.30;99.90;12.50;99461.00;;;;343054;28;83409;-93
2021/10/05 00:40:27;;;;;;;;;;;12.20;99.90;12.50;99458.00;;;;342855;28;91882;-94
2021/10/05 00:40:39;;;;;;;;;;;12.30;99.90;12.60;99453.00;;;;342019;28;83376;-94
2021/10/05 00:40:51;;;;;;;;;;;12.30;99.90;12.60;99452.00;;;;341499;28;90313;-94
2021/10/05 00:41:03;;;;;;;;;;;12.20;99.90;12.60;99444.00;;;;342013;28;83495;-94
2021/10/05 00:41:15;;;;;;;;;;;12.30;99.90;12.70;99451.00;;;;344270;28;93007;-94
2021/10/05 00:41:26;;;;;;;;;;;12.30;99.90;12.60;99452.00;;;;343280;28;82344;-94
2021/10/05 00:41:38;;;;;;;;;;;12.30;99.90;12.70;99447.00;;;;340256;28;90824;-94
2021/10/05 00:41:50;;;;;;;;;;;12.30;99.90;12.70;99444.00;;;;342207;28;83440;-94
2021/10/05 00:42:04;;;;;;;;;;;12.30;99.90;12.70;99443.00;;;;342866;28;91123;-94
2021/10/05 00:42:15;;;;;;;;;;;12.30;99.90;12.70;99446.00;;;;343410;28;83313;-94
2021/10/05 00:42:27;;;;;;;;;;;12.30;99.90;12.70;99443.00;;;;341529;28;91622;-94
2021/10/05 00:42:39;;;;;;;;;;;12.30;99.90;12.60;99453.00;;;;344822;28;82460;-94
2021/10/05 00:42:51;;;;;;;;;;;12.30;99.90;12.60;99444.00;;;;342857;28;91204;-94
2021/10/05 00:43:03;;;;;;;;;;;12.30;99.90;12.60;99443.00;;;;340516;28;83421;-94
2021/10/05 00:43:15;;;;;;;;;;;12.30;99.90;12.60;99437.00;;;;343967;28;90084;-94
2021/10/05 00:43:27;;;;;;;;;;;12.30;99.90;12.70;99445.00;;;;344610;28;83451;-93
2021/10/05 00:43:39;;;;;;;;;;;12.30;99.90;12.70;99442.00;;;;341599;28;90128;-93
2021/10/05 00:43:51;;;;;;;;;;;12.30;99.90;12.60;99443.00;;;;344721;28;83393;-94
2021/10/05 00:44:03;;;;;;;;;;;12.30;99.90;12.60;99444.00;;;;342887;28;90958;-94
2021/10/05 00:44:15;;;;;;;;;;;12.30;99.90;12.50;99445.00;;;;340690;28;83424;-93
2021/10/05 00:44:34;;;;;;;;;;;12.30;99.90;12.60;99445.00;;;;341732;28;87914;-94
2021/10/05 00:44:48;;;;;;;;;;;12.30;99.90;12.50;99449.00;;;;340653;28;83367;-94
2021/10/05 00:45:00;;;;;;;;;;;12.30;99.90;12.60;99444.00;;;;341613;28;91588;-95
2021/10/05 00:45:11;;;;;;;;;;;12.30;99.90;12.60;99435.00;;;;342038;28;82487;-94
2021/10/05 00:45:23;;;;;;;;;;;12.30;99.90;12.60;99438.00;;;;340178;28;89789;-94
2021/10/05 00:45:36;;;;;;;;;;;12.30;99.90;12.60;99440.00;;;;341992;28;83310;-94
2021/10/05 00:45:48;;;;;;;;;;;12.30;99.90;12.60;99441.00;;;;341505;28;91719;-94
2021/10/05 00:45:59;;;;;;;;;;;12.30;99.90;12.60;99435.00;;;;342087;28;83443;-94
2021/10/05 00:46:11;;;;;;;;;;;12.30;99.90;12.60;99436.00;;;;340177;28;90128;-94
2021/10/05 00:46:23;;;;;;;;;;;12.30;99.90;12.60;99433.00;;;;342046;28;83389;-94
2021/10/05 00:46:35;;;;;;;;;;;12.30;99.90;12.60;99433.00;;;;344246;28;91755;-94
2021/10/05 00:46:47;;;;;;;;;;;12.30;99.90;12.60;99428.00;;;;341909;28;83362;-94
2021/10/05 00:47:08;;;;;;;;;;;12.30;99.90;12.60;99436.00;;;;342811;28;90934;-94
2021/10/05 00:47:20;;;;;;;;;;;12.30;99.90;12.60;99435.00;;;;343352;28;83394;-94
2021/10/05 00:47:32;;;;;;;;;;;12.30;99.90;12.60;99435.00;;;;342746;28;92715;-94
2021/10/05 00:47:44;;;;;;;;;;;12.30;99.90;12.60;99440.00;;;;344801;28;83454;-93
2021/10/05 00:47:55;;;;;;;;;;;12.30;99.90;12.70;99438.00;;;;341334;28;89875;-94
2021/10/05 00:48:07;;;;;;;;;;;12.30;99.90;12.70;99442.00;;;;341898;28;83405;-94
2021/10/05 00:48:19;;;;;;;;;;;12.30;99.90;12.70;99433.00;;;;341543;28;90813;-94
2021/10/05 00:48:31;;;;;;;;;;;12.30;99.90;12.60;99426.00;;;;341974;28;82455;-94
2021/10/05 00:48:43;;;;;;;;;;;12.30;99.90;12.70;99439.00;;;;344295;28;91513;-94
2021/10/05 00:48:55;;;;;;;;;;;12.30;99.90;12.70;99434.00;;;;341208;28;85547;-94
2021/10/05 00:49:06;;;;;;;;;;;12.30;99.90;12.70;99446.00;;;;341473;28;92376;-93
2021/10/05 00:49:18;;;;;;;;;;;12.40;99.90;12.70;99438.00;;;;341993;28;83402;-94
2021/10/05 00:49:30;;;;;;;;;;;12.30;99.90;12.70;99436.00;;;;342756;28;91334;-94
2021/10/05 00:49:44;;;;;;;;;;;12.30;99.90;12.70;99433.00;;;;341980;28;83397;-94
2021/10/05 00:49:56;;;;;;;;;;;12.30;99.90;12.60;99434.00;;;;342842;28;91558;-95
2021/10/05 00:50:08;;;;;;;;;;;12.30;99.90;12.70;99431.00;;;;343148;28;83494;-94
2021/10/05 00:50:20;;;;;;;;;;;12.30;99.90;12.80;99436.00;;;;342775;28;91761;-94
2021/10/05 00:50:32;;;;;;;;;;;12.30;99.90;12.80;99431.00;;;;342045;28;83592;-95
2021/10/05 00:50:45;;;;;;;;;;;12.30;99.90;12.80;99432.00;;;;344014;28;89485;-94
2021/10/05 00:50:56;;;;;;;;;;;12.30;99.90;12.70;99439.00;;;;344760;28;82380;-94
2021/10/05 00:51:08;;;;;;;;;;;12.40;99.90;12.80;99432.00;;;;340242;28;90376;-94
2021/10/05 00:51:21;;;;;;;;;;;12.40;99.90;12.80;99429.00;;;;344687;28;82347;-95
2021/10/05 00:51:33;;;;;;;;;;;12.40;99.90;12.70;99436.00;;;;342629;28;90388;-94
2021/10/05 00:51:45;;;;;;;;;;;12.40;99.90;12.80;99434.00;;;;341687;28;83540;-95
2021/10/05 00:51:59;;;;;;;;;;;12.30;99.90;12.80;99428.00;;;;341548;28;91787;-94
2021/10/05 00:52:11;;;;;;;;;;;12.40;99.90;12.70;99424.00;;;;343245;28;83534;-94
2021/10/05 00:52:23;;;;;;;;;;;12.30;99.90;12.70;99440.00;;;;341617;28;90291;-94
2021/10/05 00:52:36;;;;;;;;;;;12.30;99.90;12.80;99437.00;;;;344446;28;83256;-94
2021/10/05 00:52:49;;;;;;;;;;;12.30;99.90;12.80;99427.00;;;;342866;28;91944;-94
2021/10/05 00:53:01;;;;;;;;;;;12.30;99.90;12.80;99430.00;;;;343379;28;82551;-93
2021/10/05 00:53:14;;;;;;;;;;;12.30;99.90;12.80;99427.00;;;;340103;28;90258;-95
2021/10/05 00:53:26;;;;;;;;;;;12.30;99.90;12.80;99423.00;;;;343321;28;82435;-94
2021/10/05 00:53:38;;;;;;;;;;;12.30;99.90;12.70;99425.00;;;;342812;28;92566;-94
2021/10/05 00:53:51;;;;;;;;;;;12.30;99.90;12.60;99430.00;;;;343396;28;83413;-95
2021/10/05 00:54:03;;;;;;;;;;;12.30;99.90;12.60;99427.00;;;;344226;28;90894;-94
2021/10/05 00:54:15;;;;;;;;;;;12.30;99.90;12.50;99427.00;;;;344657;28;82613;-94
2021/10/05 00:54:30;;;;;;;;;;;12.30;99.90;12.50;99432.00;;;;344240;28;91540;-94
2021/10/05 00:54:42;;;;;;;;;;;12.30;99.90;12.50;99429.00;;;;342016;28;83408;-94
2021/10/05 00:54:54;;;;;;;;;;;12.30;99.90;12.60;99424.00;;;;344279;28;92142;-93
2021/10/05 00:55:14;;;;;;;;;;;12.30;99.90;12.60;99426.00;;;;341978;28;82475;-94
2021/10/05 00:55:33;;;;;;;;;;;12.30;99.90;12.60;99424.00;;;;340294;28;91103;-94
2021/10/05 00:55:45;;;;;;;;;;;12.30;99.90;12.60;99425.00;;;;341784;28;83543;-94
2021/10/05 00:55:56;;;;;;;;;;;12.30;99.90;12.50;99426.00;;;;341489;28;92254;-94
2021/10/05 00:56:09;;;;;;;;;;;12.30;99.90;12.50;99419.00;;;;340654;28;82522;-94
2021/10/05 00:56:21;;;;;;;;;;;12.30;99.90;12.50;99423.00;;;;342983;28;90542;-94
2021/10/05 00:56:33;;;;;;;;;;;12.30;99.90;12.50;99426.00;;;;343429;28;82516;-94
2021/10/05 00:56:45;;;;;;;;;;;12.30;99.90;12.50;99424.00;;;;341467;28;90616;-93
2021/10/05 00:56:56;;;;;;;;;;;12.30;99.90;12.50;99423.00;;;;343347;28;83362;-94
2021/10/05 00:57:09;;;;;;;;;;;12.30;99.90;12.50;99423.00;;;;340387;28;90097;-95
2021/10/05 00:57:21;;;;;;;;;;;12.30;99.90;12.60;99425.00;;;;341980;28;82554;-94
2021/10/05 00:57:33;;;;;;;;;;;12.30;99.90;12.60;99419.00;;;;342982;28;91726;-94
2021/10/05 00:57:44;;;;;;;;;;;12.30;99.90;12.60;99422.00;;;;343272;28;83451;-94
2021/10/05 00:57:56;;;;;;;;;;;12.20;99.90;12.50;99425.00;;;;344213;28;92767;-94
2021/10/05 00:58:08;;;;;;;;;;;12.20;99.90;12.50;99418.00;;;;343305;28;82512;-94
2021/10/05 00:58:20;;;;;;;;;;;12.30;99.90;12.50;99424.00;;;;342848;28;91934;-94
2021/10/05 00:58:32;;;;;;;;;;;12.20;99.90;12.50;99426.00;;;;340668;28;83447;-94
2021/10/05 00:58:44;;;;;;;;;;;12.30;99.90;12.50;99414.00;;;;344215;28;91451;-94
2021/10/05 00:58:56;;;;;;;;;;;12.30;99.90;12.60;99421.00;;;;344727;28;83128;-95
2021/10/05 00:59:07;;;;;;;;;;;12.30;99.90;12.60;99420.00;;;;341603;28;91650;-94
2021/10/05 00:59:19;;;;;;;;;;;12.30;99.90;12.60;99421.00;;;;343323;28;83552;-95
2021/10/05 00:59:33;;;;;;;;;;;12.20;99.90;12.60;99420.00;;;;344124;28;91838;-94
2021/10/05 00:59:45;;;;;;;;;;;12.20;99.90;12.50;99421.00;;;;343311;28;82518;-94
2021/10/05 00:59:57;;;;;;;;;;;12.20;99.90;12.50;99422.00;;;;345579;28;92294;-94